Latest Weather Observations for Cobar

IDN60801

Issued at 6:52 pm EDT Friday 23 October 2020 (issued every 10 minutes, with the page automatically refreshed every 10 minutes)

About weather observations | Map of weather stations | Latest weather observations for NSW | Other Formats
Station Details ID: 048027 Name: COBAR MO Lat: -31.48 Lon: 145.83 Height: 260.0 m
Data from the previous 72 hours. | See also: Recent months at Cobar
Date/Time
EDT
Temp
°C
App
Temp
°C
Dew
Point
°C
Rel
Hum
%
Delta-T
°C
Wind Press
QNH
hPa
Press
MSL
hPa
Rain since
9am
mm
Dir  Spd
km/h
Gust
km/h
Spd
kts
Gust
kts
23/06:30pm 25.0 24.7 14.5 52 6.3 NNE 9 13 5 7 1005.2 1004.3 0.0
23/06:00pm 25.2 24.9 14.3 50 6.6 NE 9 15 5 8 1005.2 1004.3 0.0
23/05:30pm 24.6 23.3 13.8 51 6.4 NE 13 19 7 10 1005.7 1004.8 0.0
23/05:00pm 23.2 20.9 15.8 63 4.5 NNE 22 32 12 17 1006.8 1006.0 0.0
23/04:30pm 26.3 24.3 15.0 49 6.9 N 19 28 10 15 1007.0 1006.2 0.0
23/04:00pm 27.1 24.6 15.1 47 7.4 NNW 22 33 12 18 1007.0 1006.2 0.0
23/03:30pm 26.8 24.3 15.2 49 7.1 N 22 32 12 17 1007.0 1006.2 0.0
23/03:00pm 28.1 25.6 15.1 45 8.0 N 22 30 12 16 1007.2 1006.4 0.0
23/02:30pm 27.9 25.8 15.2 46 7.8 ENE 20 30 11 16 1006.9 1006.1 0.0
23/02:00pm 27.8 25.6 14.8 45 8.0 NE 20 33 11 18 1007.3 1006.5 0.0
23/01:30pm 26.4 24.6 15.4 50 6.7 NNE 19 28 10 15 1008.4 1007.5 0.0
23/01:00pm 26.6 24.5 14.7 48 7.2 N 19 26 10 14 1008.9 1008.0 0.0
23/12:30pm 27.2 26.6 15.6 49 7.2 NE 13 20 7 11 1008.7 1007.8 0.0
23/12:00pm 26.1 24.3 15.5 52 6.5 NNE 19 26 10 14 1009.4 1008.6 0.0
23/11:30am 26.4 25.6 15.1 49 6.9 NE 13 20 7 11 1009.7 1008.9 0.0
23/11:00am 25.4 23.7 14.8 52 6.4 NE 17 26 9 14 1010.0 1009.2 0.0
23/10:30am 25.2 23.6 14.9 52 6.2 NE 17 22 9 12 1010.4 1009.6 0.0
23/10:00am 24.9 23.4 15.2 54 5.9 NNE 17 24 9 13 1010.6 1009.8 0.0
23/09:30am 23.8 22.1 14.8 57 5.4 NNE 17 28 9 15 1010.6 1009.8 0.0
23/09:00am 23.4 22.1 14.7 58 5.2 N 15 20 8 11 1010.8 1010.0 0.0
23/08:30am 22.9 22.7 14.7 60 4.9 NE 9 19 5 10 1011.0 1010.2 0.0
23/08:23am 22.6 23.0 14.7 61 4.7 NE 6 13 3 7 1010.9 1010.1 0.0
23/08:00am 22.0 19.3 14.6 63 4.4 ENE 22 30 12 16 1008.9 1008.0 0.0
23/07:30am 21.1 18.9 14.3 65 4.0 ENE 19 24 10 13 1008.9 1008.0 0.0
23/07:00am 20.7 19.2 14.1 66 3.9 ENE 15 22 8 12 1008.7 1007.8 0.0
23/06:30am 20.8 18.8 14.0 65 4.0 NE 17 20 9 11 1008.9 1008.0 0.0
23/06:00am 21.1 18.5 13.8 63 4.3 NE 20 26 11 14 1008.5 1007.6 0.0
23/05:30am 21.3 18.6 13.5 61 4.5 NE 20 26 11 14 1008.6 1007.7 0.0
23/05:00am 21.7 18.5 13.1 58 5.0 NE 22 33 12 18 1008.7 1007.8 0.0
23/04:30am 22.1 18.8 12.9 56 5.3 NE 22 30 12 16 1008.9 1008.0 0.0
23/04:00am 21.7 19.6 12.5 56 5.3 NNE 15 19 8 10 1008.9 1008.0 0.0
23/03:30am 22.3 19.9 12.5 53 5.6 NE 17 22 9 12 1008.5 1007.6 0.0
23/03:00am 22.6 19.8 12.5 53 5.8 NE 19 24 10 13 1008.8 1007.9 0.0
23/02:30am 23.0 20.1 12.3 51 6.2 NE 19 26 10 14 1009.3 1008.5 0.0
23/02:00am 23.4 20.4 12.4 50 6.4 NE 20 28 11 15 1009.5 1008.7 0.0
23/01:30am 23.0 20.2 11.4 48 6.6 NE 17 24 9 13 1009.8 1009.0 0.0
23/01:00am 23.2 19.9 10.9 46 6.9 NE 19 26 10 14 1009.9 1009.1 0.0
23/12:30am 23.4 19.9 10.1 43 7.4 NE 19 24 10 13 1009.7 1008.9 0.0
23/12:00am 23.3 20.0 9.7 42 7.5 ENE 17 20 9 11 1009.8 1009.0 0.0
 
Date/Time
EDT
Temp
°C
App
Temp
°C
Dew
Point
°C
Rel
Hum
%
Delta-T
°C
Wind Press
QNH
hPa
Press
MSL
hPa
Rain since
9am
mm
Dir  Spd
km/h
Gust
km/h
Spd
kts
Gust
kts
22/11:30pm 23.8 20.4 9.0 39 8.1 NE 17 22 9 12 1010.3 1009.5 0.0
22/11:00pm 23.9 20.8 8.7 38 8.3 NE 15 20 8 11 1010.7 1009.9 0.0
22/10:30pm 24.4 21.6 8.4 36 8.7 NE 13 19 7 10 1010.9 1010.1 0.0
22/10:00pm 24.9 22.1 8.4 35 9.0 NE 13 17 7 9 1011.0 1010.2 0.0
22/09:30pm 25.3 22.3 7.9 33 9.4 NE 13 17 7 9 1010.8 1010.0 0.0
22/09:00pm 26.1 22.7 7.7 31 9.9 NE 15 17 8 9 1010.6 1009.8 0.0
22/08:30pm 26.8 23.7 7.3 29 10.5 NNE 13 15 7 8 1010.2 1009.4 0.0
22/08:00pm 27.2 24.3 6.6 27 11.0 NNE 11 13 6 7 1010.0 1009.2 0.0
22/07:30pm 28.6 25.2 6.1 24 12.0 NE 13 17 7 9 1009.9 1009.1 0.0
22/07:00pm 29.5 26.8 5.6 22 12.7 NNE 9 15 5 8 1009.7 1008.9 0.0
22/06:30pm 30.6 26.9 4.4 19 13.7 NE 13 19 7 10 1009.4 1008.6 0.0
22/06:00pm 31.3 28.9 4.2 18 14.2 ENE 6 19 3 10 1009.1 1008.2 0.0
22/05:30pm 31.1 27.8 4.8 19 13.9 NE 11 20 6 11 1009.0 1008.1 0.0
22/05:00pm 30.9 27.1 3.8 18 14.1 N 13 28 7 15 1008.9 1008.0 0.0
22/04:30pm 32.1 28.7 4.0 17 14.7 ENE 11 20 6 11 1008.9 1008.0 0.0
22/04:00pm 33.1 30.5 3.0 15 15.6 NW 6 11 3 6 1009.1 1008.2 0.0
22/03:30pm 31.7 28.6 3.7 17 14.6 NE 9 15 5 8 1009.5 1008.7 0.0
22/03:00pm 31.7 28.0 4.5 18 14.4 ENE 13 20 7 11 1009.8 1009.0 0.0
22/02:30pm 31.2 28.0 4.9 19 13.9 NNE 11 17 6 9 1010.4 1009.6 0.0
22/02:00pm 29.6 26.5 3.6 19 13.3 SE 9 15 5 8 1010.8 1010.0 0.0
22/01:30pm 31.3 28.8 4.9 19 14.0 NNW 7 17 4 9 1011.2 1010.4 0.0
22/01:00pm 30.4 27.7 5.6 21 13.2 ENE 9 20 5 11 1011.4 1010.6 0.0
22/12:30pm 29.9 27.4 4.5 20 13.3 NNE 7 17 4 9 1012.0 1011.2 0.0
22/12:00pm 29.4 26.5 6.7 24 12.3 ENE 11 17 6 9 1012.5 1011.6 0.0
22/11:30am 28.8 25.8 7.9 27 11.5 NNE 13 20 7 11 1012.9 1012.1 0.0
22/11:00am 27.5 25.4 11.1 36 9.4 NE 13 20 7 11 1013.0 1012.2 0.0
22/10:59am 27.2 25.2 10.0 34 9.7 NE 11 20 6 11 1013.0 1012.2 0.0
22/10:37am 26.3 25.1 12.7 43 8.0 N 11 19 6 10 1013.2 1012.4 0.0
22/10:30am 26.4 25.2 12.8 43 8.0 NE 11 17 6 9 1013.4 1012.6 0.0
22/10:00am 24.4 23.5 12.7 48 6.8 NE 9 13 5 7 1013.4 1012.6 0.0
22/09:30am 23.7 22.4 13.8 53 5.9 NNE 13 20 7 11 1013.4 1012.6 0.0
22/09:00am 22.1 20.5 12.9 56 5.3 NE 13 19 7 10 1013.4 1012.6 0.0
22/08:30am 20.5 18.1 12.5 60 4.6 NE 17 22 9 12 1013.3 1012.5 0.0
22/08:00am 19.1 16.5 12.1 64 3.9 ENE 17 20 9 11 1013.2 1012.4 0.0
22/07:30am 16.7 13.4 4.4 44 5.9 E 11 15 6 8 1013.0 1012.2 0.0
22/07:00am 14.0 10.3 2.6 46 5.1 E 11 15 6 8 1012.7 1011.9 0.0
22/06:30am 13.1 10.3 1.8 46 5.0 S 6 7 3 4 1012.5 1011.6 0.0
22/06:00am 13.8 10.8 1.1 42 5.5 S 6 7 3 4 1012.4 1011.5 0.0
22/05:30am 14.8 11.8 1.0 39 6.0 SSE 6 7 3 4 1012.0 1011.2 0.0
22/05:00am 15.8 12.7 1.2 37 6.5 SSE 7 7 4 4 1011.6 1010.8 0.0
22/04:30am 15.4 12.2 0.8 37 6.4 S 7 9 4 5 1011.5 1010.7 0.0
22/04:00am 15.3 11.7 0.3 36 6.5 SE 9 9 5 5 1011.5 1010.7 0.0
22/03:30am 16.6 13.0 0.3 33 7.1 SSE 9 11 5 6 1011.7 1010.9 0.0
22/03:00am 16.6 13.0 0.3 33 7.1 S 9 11 5 6 1011.8 1011.0 0.0
22/02:30am 17.6 14.0 0.3 31 7.6 S 9 11 5 6 1012.1 1011.3 0.0
22/02:00am 17.0 13.3 -0.2 31 7.5 S 9 11 5 6 1012.6 1011.7 0.0
22/01:30am 16.9 12.8 -0.3 31 7.5 SW 11 11 6 6 1013.0 1012.2 0.0
22/01:00am 17.3 13.5 -0.4 30 7.7 SSW 9 9 5 5 1013.2 1012.4 0.0
22/12:30am 17.9 14.5 -0.4 29 8.0 SSW 7 9 4 5 1013.3 1012.5 0.0
22/12:00am 18.8 15.1 -0.1 28 8.4 SSW 9 11 5 6 1013.4 1012.6 0.0
 
Date/Time
EDT
Temp
°C
App
Temp
°C
Dew
Point
°C
Rel
Hum
%
Delta-T
°C
Wind Press
QNH
hPa
Press
MSL
hPa
Rain since
9am
mm
Dir  Spd
km/h
Gust
km/h
Spd
kts
Gust
kts
21/11:30pm 19.3 16.0 -0.1 27 8.6 SSW 7 11 4 6 1013.4 1012.6 0.0
21/11:00pm 20.3 16.6 0.2 26 9.1 SSW 9 11 5 6 1013.3 1012.5 0.0
21/10:30pm 21.3 17.6 -0.1 24 9.7 SSW 9 11 5 6 1013.2 1012.4 0.0
21/10:00pm 21.5 17.8 0.1 24 9.7 S 9 11 5 6 1013.0 1012.2 0.0
21/09:30pm 21.1 17.8 0.3 25 9.5 SW 7 9 4 5 1012.6 1011.7 0.0
21/09:12pm 21.3 17.7 0.5 25 9.5 SW 9 11 5 6 1012.4 1011.5 0.0
21/09:00pm 21.5 18.3 0.7 25 9.6 SW 7 13 4 7 1012.2 1011.4 0.0
21/08:53pm 22.7 20.8 0.5 23 10.3 CALM 0 7 0 4 1012.0 1011.2 0.0
21/08:30pm 22.5 20.6 0.4 23 10.2 CALM 0 0 0 0 1011.6 1010.8 0.0
21/08:00pm 23.6 21.6 0.0 21 10.9 CALM 0 0 0 0 1011.3 1010.5 0.0
21/07:30pm 25.8 22.8 0.5 19 12.0 SSW 6 6 3 3 1010.9 1010.1 0.0
21/07:00pm 27.1 24.0 0.0 17 12.8 SSW 6 9 3 5 1010.9 1010.1 0.0
21/06:30pm 26.9 23.4 -1.0 16 13.0 SW 7 11 4 6 1010.8 1010.0 0.0
21/06:00pm 28.8 24.4 -2.3 13 14.3 WSW 11 17 6 9 1010.7 1009.9 0.0
21/05:30pm 28.8 23.9 -3.4 12 14.5 SSW 13 20 7 11 1010.6 1009.8 0.0
21/05:00pm 28.9 24.4 -3.3 12 14.6 SW 11 20 6 11 1010.7 1009.9 0.0
21/04:30pm 28.5 25.1 1.9 18 13.2 SSE 9 15 5 8 1010.8 1010.0 0.0
21/04:00pm 27.5 23.8 2.6 20 12.4 SSW 11 17 6 9 1011.1 1010.3 0.0
21/03:30pm 27.0 24.1 1.4 19 12.4 WNW 6 9 3 5 1011.3 1010.5 0.0
21/03:00pm 28.0 24.7 2.2 19 12.8 WNW 9 17 5 9 1011.7 1010.9 0.0
21/02:30pm 28.1 24.8 2.3 19 12.8 W 9 15 5 8 1011.9 1011.1 0.0
21/02:00pm 27.4 23.2 1.8 19 12.6 W 13 19 7 10 1012.2 1011.4 0.0
21/01:30pm 27.0 22.8 1.4 19 12.4 SW 13 19 7 10 1012.6 1011.7 0.0
21/01:00pm 26.4 22.1 0.9 19 12.2 WSW 13 17 7 9 1012.8 1012.0 0.0
21/12:30pm 26.1 22.1 2.7 22 11.6 WSW 13 19 7 10 1013.0 1012.2 0.0
21/12:00pm 27.3 24.4 2.4 20 12.3 SSE 7 13 4 7 1013.4 1012.6 0.0
21/11:30am 26.9 23.0 1.3 19 12.4 SSE 11 17 6 9 1013.7 1012.9 0.0
21/11:00am 26.8 24.5 4.6 24 11.4 NNE 6 13 3 7 1014.1 1013.3 0.0
21/10:30am 25.2 22.8 5.4 28 10.2 NNE 7 11 4 6 1014.2 1013.4 0.0
21/10:00am 24.7 21.9 6.9 32 9.4 NE 11 17 6 9 1014.4 1013.6 0.0
21/09:30am 24.3 22.1 7.9 35 8.8 ENE 9 13 5 7 1014.3 1013.5 0.0
21/09:00am 21.5 18.4 7.3 40 7.4 E 13 17 7 9 1014.1 1013.3 0.0
21/08:30am 19.3 15.9 5.7 41 6.8 E 13 17 7 9 1014.0 1013.2 0.0
21/08:00am 18.8 15.4 4.2 38 7.0 ESE 11 15 6 8 1013.7 1012.9 0.0
21/07:30am 17.0 13.8 3.0 39 6.5 SE 9 11 5 6 1013.5 1012.7 0.0
21/07:00am 16.1 12.3 1.8 38 6.4 ESE 11 13 6 7 1013.4 1012.6 0.0
21/06:30am 15.4 11.4 0.8 37 6.4 SE 11 13 6 7 1013.0 1012.2 0.0
21/06:00am 15.8 12.2 0.8 36 6.6 SE 9 11 5 6 1013.0 1012.2 0.0
21/05:30am 16.0 12.3 0.2 34 6.9 SSE 9 13 5 7 1012.9 1012.1 0.0
21/05:00am 16.4 13.1 0.1 33 7.1 SSE 7 11 4 6 1012.6 1011.7 0.0
21/04:30am 16.7 13.4 -0.1 32 7.3 SSE 7 9 4 5 1012.5 1011.6 0.0
21/04:00am 17.1 13.0 -0.1 31 7.5 SSE 11 15 6 8 1012.2 1011.4 0.0
21/03:30am 17.2 13.5 -0.1 31 7.5 S 9 11 5 6 1012.2 1011.4 0.0
21/03:00am 16.3 13.1 -0.4 32 7.2 SSE 6 9 3 5 1012.4 1011.5 0.0
21/02:30am 17.1 13.3 -0.6 30 7.6 SSE 9 17 5 9 1012.6 1011.7 0.0
21/02:00am 17.3 13.7 -1.9 27 8.1 NW 7 7 4 4 1012.7 1011.9 0.0
21/01:30am 17.8 14.3 -1.4 27 8.2 WNW 7 9 4 5 1012.9 1012.1 0.0
21/01:00am 17.9 14.0 -1.3 27 8.2 WNW 9 13 5 7 1013.2 1012.4 0.0
21/12:30am 18.9 14.7 -1.0 26 8.7 N 11 13 6 7 1013.3 1012.5 0.0
21/12:00am 19.1 14.8 -1.9 24 9.0 N 11 13 6 7 1013.5 1012.7 0.0
 
Date/Time
EDT
Temp
°C
App
Temp
°C
Dew
Point
°C
Rel
Hum
%
Delta-T
°C
Wind Press
QNH
hPa
Press
MSL
hPa
Rain since
9am
mm
Dir  Spd
km/h
Gust
km/h
Spd
kts
Gust
kts
20/11:30pm 19.1 14.4 -1.9 24 9.0 NNE 13 13 7 7 1013.8 1013.0 0.0
20/11:00pm 19.5 14.8 -1.6 24 9.1 N 13 15 7 8 1014.0 1013.2 0.0
20/10:30pm 19.7 15.4 -2.0 23 9.3 N 11 13 6 7 1014.1 1013.3 0.0
20/10:00pm 19.8 15.4 -2.5 22 9.5 N 11 11 6 6 1014.1 1013.3 0.0
20/09:30pm 20.4 16.0 -2.6 21 9.8 NNE 11 13 6 7 1013.9 1013.1 0.0
20/09:00pm 21.3 16.4 -3.2 19 10.4 NNE 13 15 7 8 1013.7 1012.9 0.0
20/08:30pm 21.6 17.0 -3.7 18 10.7 ENE 11 15 6 8 1013.4 1012.6 0.0
20/08:00pm 22.7 18.8 -4.4 16 11.4 NE 7 11 4 6 1013.0 1012.2 0.0
20/07:30pm 24.7 20.9 -5.5 13 12.7 NNE 6 7 3 4 1012.7 1011.9 0.0
20/07:00pm 26.2 22.1 -6.5 11 13.7 NNE 7 9 4 5 1012.6 1011.7 0.0

Other formats

Comma delimited format used in spreadsheet applications
http://www.bom.gov.au/fwo/IDN60801/IDN60801.94711.axf

JavaScript Object Notation format (JSON) in row-major order
http://www.bom.gov.au/fwo/IDN60801/IDN60801.94711.json

Data quality

Most of these data are generated automatically and are frequently updated. Quality checks on data are not normally performed. It is possible for incorrect values to appear. Refer to information at About Latest Weather Observations and please check the disclaimer before using these data.